Y88 weather

Green Lake Airport
Interlochen, Michigan, United States

Public forecast

Using degrees Fahrenheit for public forecast. Weather courtesy of forecast.io.

Closest aviation weather report (METAR) to Green Lake Airport

Closest report is Cherry Capital Airport, 11.1 nm (20.5 km) NE. Retrieved 2019/10/17 10:53 UTC (1 hour ago):

KTVC 171053Z 33010G17KT 10SM FEW027 OVC036 08/03 A2990 RMK AO2 SLP128 T00830028

Closest aviation forecast (TAF) to Green Lake Airport

Closest forecast is Cherry Capital Airport, 11.1 nm (20.5 km) NE. Retrieved 2019/10/17 06:18 UTC (6 hours ago):

TAF KTVC 170615Z 1706/1806 33012G23KT P6SM VCSH OVC045 FM170800 33010G17KT P6SM -SHRA OVC035 FM171500 34010G19KT P6SM BKN035 FM180000 31005KT P6SM BKN035 FM180500 VRB03KT P6SM SCT035